sensor_id;sensor_type;location;lat;lon;timestamp;pressure;altitude;pressure_sealevel;temperature;humidity
76460;BME280;65299;46.084;18.762;2023-06-22T00:00:01;100776.72;;;23.76;74.12
76460;BME280;65299;46.084;18.762;2023-06-22T00:03:08;100767.00;;;23.87;73.87
76460;BME280;65299;46.084;18.762;2023-06-22T00:06:08;100756.59;;;24.02;73.02
76460;BME280;65299;46.084;18.762;2023-06-22T00:09:09;100740.44;;;24.17;72.53
76460;BME280;65299;46.084;18.762;2023-06-22T00:12:10;100732.88;;;24.23;72.83
76460;BME280;65299;46.084;18.762;2023-06-22T00:15:10;100722.56;;;24.28;72.37
76460;BME280;65299;46.084;18.762;2023-06-22T00:18:11;100727.84;;;24.37;72.15
76460;BME280;65299;46.084;18.762;2023-06-22T00:21:13;100721.91;;;24.07;73.28
76460;BME280;65299;46.084;18.762;2023-06-22T00:24:13;100734.38;;;24.08;73.57
76460;BME280;65299;46.084;18.762;2023-06-22T00:27:14;100729.13;;;24.15;73.76
76460;BME280;65299;46.084;18.762;2023-06-22T00:30:18;100723.16;;;23.98;74.83
76460;BME280;65299;46.084;18.762;2023-06-22T00:33:18;100720.81;;;23.72;77.82
76460;BME280;65299;46.084;18.762;2023-06-22T00:36:19;100711.63;;;23.88;77.28
76460;BME280;65299;46.084;18.762;2023-06-22T00:39:19;100714.50;;;23.68;78.34
76460;BME280;65299;46.084;18.762;2023-06-22T00:42:19;100723.31;;;23.53;78.81
76460;BME280;65299;46.084;18.762;2023-06-22T00:45:20;100722.72;;;23.83;77.67
76460;BME280;65299;46.084;18.762;2023-06-22T00:48:23;100730.50;;;23.97;76.67
76460;BME280;65299;46.084;18.762;2023-06-22T00:51:24;100742.50;;;23.84;76.98
76460;BME280;65299;46.084;18.762;2023-06-22T00:54:24;100754.22;;;24.00;76.63
76460;BME280;65299;46.084;18.762;2023-06-22T00:57:26;100751.19;;;24.02;76.03
76460;BME280;65299;46.084;18.762;2023-06-22T01:00:28;100749.94;;;24.11;75.79
76460;BME280;65299;46.084;18.762;2023-06-22T01:03:28;100746.00;;;24.09;75.40
76460;BME280;65299;46.084;18.762;2023-06-22T01:06:53;100747.59;;;23.85;76.26
76460;BME280;65299;46.084;18.762;2023-06-22T01:16:33;100761.25;;;23.77;76.83
76460;BME280;65299;46.084;18.762;2023-06-22T01:19:44;100755.63;;;23.70;77.07
76460;BME280;65299;46.084;18.762;2023-06-22T01:26:08;100771.50;;;23.47;78.13
76460;BME280;65299;46.084;18.762;2023-06-22T01:29:15;100769.00;;;23.42;78.11
76460;BME280;65299;46.084;18.762;2023-06-22T01:32:17;100773.34;;;23.23;78.84
76460;BME280;65299;46.084;18.762;2023-06-22T01:35:18;100796.44;;;23.08;79.21
76460;BME280;65299;46.084;18.762;2023-06-22T01:38:20;100808.91;;;22.68;80.02
76460;BME280;65299;46.084;18.762;2023-06-22T01:41:25;100816.41;;;22.62;79.60
76460;BME280;65299;46.084;18.762;2023-06-22T01:44:26;100813.25;;;22.60;79.23
76460;BME280;65299;46.084;18.762;2023-06-22T01:47:27;100835.50;;;22.66;79.53
76460;BME280;65299;46.084;18.762;2023-06-22T01:50:28;100832.97;;;22.81;78.90
76460;BME280;65299;46.084;18.762;2023-06-22T01:53:29;100830.56;;;22.88;78.73
76460;BME280;65299;46.084;18.762;2023-06-22T01:56:29;100832.84;;;22.98;79.04
76460;BME280;65299;46.084;18.762;2023-06-22T01:59:39;100822.38;;;23.09;78.30
76460;BME280;65299;46.084;18.762;2023-06-22T02:02:52;100823.53;;;23.08;78.61
76460;BME280;65299;46.084;18.762;2023-06-22T02:05:58;100824.94;;;23.26;77.82
76460;BME280;65299;46.084;18.762;2023-06-22T02:09:02;100821.56;;;23.29;77.44
76460;BME280;65299;46.084;18.762;2023-06-22T02:12:07;100820.84;;;23.20;77.89
76460;BME280;65299;46.084;18.762;2023-06-22T02:15:09;100822.69;;;23.28;77.71
76460;BME280;65299;46.084;18.762;2023-06-22T02:18:11;100818.78;;;23.50;76.95
76460;BME280;65299;46.084;18.762;2023-06-22T02:21:12;100815.75;;;23.39;76.98
76460;BME280;65299;46.084;18.762;2023-06-22T02:24:12;100816.22;;;23.21;77.66
76460;BME280;65299;46.084;18.762;2023-06-22T02:27:13;100821.03;;;23.36;77.62
76460;BME280;65299;46.084;18.762;2023-06-22T02:30:14;100811.59;;;23.54;76.39
76460;BME280;65299;46.084;18.762;2023-06-22T02:33:16;100806.97;;;23.66;76.03
76460;BME280;65299;46.084;18.762;2023-06-22T02:36:16;100813.19;;;23.55;76.10
76460;BME280;65299;46.084;18.762;2023-06-22T02:39:21;100813.63;;;23.57;75.84
76460;BME280;65299;46.084;18.762;2023-06-22T02:42:22;100815.44;;;23.65;75.74
76460;BME280;65299;46.084;18.762;2023-06-22T02:45:23;100810.28;;;23.72;75.10
76460;BME280;65299;46.084;18.762;2023-06-22T02:48:23;100815.25;;;23.82;74.92
76460;BME280;65299;46.084;18.762;2023-06-22T02:51:23;100814.34;;;23.78;74.98
76460;BME280;65299;46.084;18.762;2023-06-22T02:54:24;100816.72;;;23.79;74.19
76460;BME280;65299;46.084;18.762;2023-06-22T02:57:24;100815.69;;;23.84;74.06
76460;BME280;65299;46.084;18.762;2023-06-22T03:00:25;100817.06;;;23.90;73.99
76460;BME280;65299;46.084;18.762;2023-06-22T03:03:30;100822.69;;;23.85;72.95
76460;BME280;65299;46.084;18.762;2023-06-22T03:06:31;100829.38;;;23.87;73.25
76460;BME280;65299;46.084;18.762;2023-06-22T03:09:31;100827.56;;;23.92;73.29
76460;BME280;65299;46.084;18.762;2023-06-22T03:12:32;100820.66;;;23.70;72.35
76460;BME280;65299;46.084;18.762;2023-06-22T03:15:33;100836.81;;;24.03;72.35
76460;BME280;65299;46.084;18.762;2023-06-22T03:18:33;100839.22;;;24.04;72.04
76460;BME280;65299;46.084;18.762;2023-06-22T03:21:34;100848.69;;;23.98;71.60
76460;BME280;65299;46.084;18.762;2023-06-22T03:24:34;100853.75;;;23.87;71.10
76460;BME280;65299;46.084;18.762;2023-06-22T03:27:35;100857.03;;;23.81;71.10
76460;BME280;65299;46.084;18.762;2023-06-22T03:30:35;100854.78;;;23.95;71.37
76460;BME280;65299;46.084;18.762;2023-06-22T03:33:35;100855.50;;;24.04;69.55
76460;BME280;65299;46.084;18.762;2023-06-22T03:36:36;100849.16;;;24.00;69.29
76460;BME280;65299;46.084;18.762;2023-06-22T03:39:36;100855.91;;;23.82;70.04
76460;BME280;65299;46.084;18.762;2023-06-22T03:42:37;100857.59;;;23.99;68.97
76460;BME280;65299;46.084;18.762;2023-06-22T03:45:37;100857.53;;;24.19;68.65
76460;BME280;65299;46.084;18.762;2023-06-22T03:48:38;100849.84;;;24.21;68.68
76460;BME280;65299;46.084;18.762;2023-06-22T03:51:38;100852.09;;;24.31;68.37
76460;BME280;65299;46.084;18.762;2023-06-22T03:54:39;100852.66;;;24.37;67.71
76460;BME280;65299;46.084;18.762;2023-06-22T03:57:39;100849.81;;;23.85;69.09
76460;BME280;65299;46.084;18.762;2023-06-22T04:00:40;100846.34;;;24.09;68.61
76460;BME280;65299;46.084;18.762;2023-06-22T04:03:41;100849.00;;;23.84;68.73
76460;BME280;65299;46.084;18.762;2023-06-22T04:06:41;100855.56;;;23.71;69.46
76460;BME280;65299;46.084;18.762;2023-06-22T04:09:41;100853.88;;;23.91;68.70
76460;BME280;65299;46.084;18.762;2023-06-22T04:12:42;100858.38;;;23.87;67.95
76460;BME280;65299;46.084;18.762;2023-06-22T04:15:42;100857.88;;;24.06;67.97
76460;BME280;65299;46.084;18.762;2023-06-22T04:18:43;100846.63;;;23.83;68.52
76460;BME280;65299;46.084;18.762;2023-06-22T04:21:44;100852.09;;;24.07;68.20
76460;BME280;65299;46.084;18.762;2023-06-22T04:24:48;100859.78;;;24.29;67.34
76460;BME280;65299;46.084;18.762;2023-06-22T04:27:53;100862.69;;;24.60;66.02
76460;BME280;65299;46.084;18.762;2023-06-22T04:30:53;100857.75;;;24.14;67.52
76460;BME280;65299;46.084;18.762;2023-06-22T04:34:00;100856.63;;;24.15;67.69
76460;BME280;65299;46.084;18.762;2023-06-22T04:37:06;100859.44;;;24.43;66.42
76460;BME280;65299;46.084;18.762;2023-06-22T04:40:06;100858.44;;;24.47;66.56
76460;BME280;65299;46.084;18.762;2023-06-22T04:43:07;100858.28;;;24.56;66.21
76460;BME280;65299;46.084;18.762;2023-06-22T04:46:10;100859.88;;;24.57;66.27
76460;BME280;65299;46.084;18.762;2023-06-22T04:49:10;100861.09;;;24.72;65.71
76460;BME280;65299;46.084;18.762;2023-06-22T04:52:12;100867.72;;;24.98;65.43
76460;BME280;65299;46.084;18.762;2023-06-22T04:55:14;100860.94;;;24.92;65.26
76460;BME280;65299;46.084;18.762;2023-06-22T04:58:18;100859.94;;;24.73;65.61
76460;BME280;65299;46.084;18.762;2023-06-22T05:01:20;100856.91;;;24.74;65.76
76460;BME280;65299;46.084;18.762;2023-06-22T05:04:23;100847.50;;;24.72;65.66
76460;BME280;65299;46.084;18.762;2023-06-22T05:07:24;100854.22;;;24.38;66.95
76460;BME280;65299;46.084;18.762;2023-06-22T05:10:26;100856.13;;;24.61;66.61
76460;BME280;65299;46.084;18.762;2023-06-22T05:13:27;100859.31;;;24.39;66.54
76460;BME280;65299;46.084;18.762;2023-06-22T05:16:28;100865.81;;;24.87;65.80
76460;BME280;65299;46.084;18.762;2023-06-22T05:19:28;100859.72;;;24.90;65.65
76460;BME280;65299;46.084;18.762;2023-06-22T05:22:33;100861.22;;;24.75;66.21
76460;BME280;65299;46.084;18.762;2023-06-22T05:25:33;100868.66;;;25.18;65.03
76460;BME280;65299;46.084;18.762;2023-06-22T05:28:34;100872.81;;;25.00;65.06
76460;BME280;65299;46.084;18.762;2023-06-22T05:31:34;100865.50;;;25.16;65.61
76460;BME280;65299;46.084;18.762;2023-06-22T05:34:35;100866.72;;;25.18;65.23
76460;BME280;65299;46.084;18.762;2023-06-22T05:37:35;100874.03;;;25.30;64.90
76460;BME280;65299;46.084;18.762;2023-06-22T05:40:36;100874.22;;;25.37;64.58
76460;BME280;65299;46.084;18.762;2023-06-22T05:43:36;100879.16;;;25.19;65.00
76460;BME280;65299;46.084;18.762;2023-06-22T05:46:37;100874.47;;;25.32;64.48
76460;BME280;65299;46.084;18.762;2023-06-22T05:49:37;100880.88;;;25.39;64.98
76460;BME280;65299;46.084;18.762;2023-06-22T05:52:38;100875.72;;;25.78;65.09
76460;BME280;65299;46.084;18.762;2023-06-22T05:55:38;100875.06;;;26.12;62.99
76460;BME280;65299;46.084;18.762;2023-06-22T05:58:39;100868.66;;;26.39;61.53
76460;BME280;65299;46.084;18.762;2023-06-22T06:01:39;100885.81;;;26.74;61.05
76460;BME280;65299;46.084;18.762;2023-06-22T06:04:40;100885.50;;;26.95;60.88
76460;BME280;65299;46.084;18.762;2023-06-22T06:07:41;100882.03;;;26.98;59.07
76460;BME280;65299;46.084;18.762;2023-06-22T06:10:42;100886.25;;;26.76;59.65
76460;BME280;65299;46.084;18.762;2023-06-22T06:13:42;100878.63;;;27.20;59.49
76460;BME280;65299;46.084;18.762;2023-06-22T06:16:43;100895.16;;;26.92;59.51
76460;BME280;65299;46.084;18.762;2023-06-22T06:19:43;100886.34;;;27.37;58.22
76460;BME280;65299;46.084;18.762;2023-06-22T06:22:44;100887.06;;;27.15;58.75
76460;BME280;65299;46.084;18.762;2023-06-22T06:25:44;100888.28;;;27.37;58.17
76460;BME280;65299;46.084;18.762;2023-06-22T06:28:45;100892.81;;;26.91;59.66
76460;BME280;65299;46.084;18.762;2023-06-22T06:31:45;100885.94;;;27.16;59.14
76460;BME280;65299;46.084;18.762;2023-06-22T06:34:46;100890.72;;;27.03;58.72
76460;BME280;65299;46.084;18.762;2023-06-22T06:37:48;100884.19;;;27.46;58.29
76460;BME280;65299;46.084;18.762;2023-06-22T06:40:49;100883.38;;;27.65;57.18
76460;BME280;65299;46.084;18.762;2023-06-22T06:43:50;100879.81;;;27.61;57.64
76460;BME280;65299;46.084;18.762;2023-06-22T06:46:50;100883.34;;;27.87;57.47
76460;BME280;65299;46.084;18.762;2023-06-22T06:49:50;100881.63;;;27.99;58.32
76460;BME280;65299;46.084;18.762;2023-06-22T06:52:51;100886.19;;;28.14;57.03
76460;BME280;65299;46.084;18.762;2023-06-22T06:55:51;100884.59;;;28.13;56.68
76460;BME280;65299;46.084;18.762;2023-06-22T06:58:52;100882.69;;;28.43;55.90
76460;BME280;65299;46.084;18.762;2023-06-22T07:01:52;100888.97;;;28.43;57.09
76460;BME280;65299;46.084;18.762;2023-06-22T07:04:53;100887.13;;;28.25;56.95
76460;BME280;65299;46.084;18.762;2023-06-22T07:07:57;100877.19;;;27.90;57.34
76460;BME280;65299;46.084;18.762;2023-06-22T07:10:57;100879.31;;;28.23;56.54
76460;BME280;65299;46.084;18.762;2023-06-22T07:13:58;100867.69;;;28.04;57.28
76460;BME280;65299;46.084;18.762;2023-06-22T07:16:58;100870.94;;;28.65;55.68
76460;BME280;65299;46.084;18.762;2023-06-22T07:20:01;100868.28;;;28.68;55.69
76460;BME280;65299;46.084;18.762;2023-06-22T07:23:01;100861.72;;;28.21;56.76
76460;BME280;65299;46.084;18.762;2023-06-22T07:26:02;100853.13;;;28.75;55.77
76460;BME280;65299;46.084;18.762;2023-06-22T07:29:02;100854.81;;;28.83;55.22
76460;BME280;65299;46.084;18.762;2023-06-22T07:32:03;100852.91;;;28.87;56.25
76460;BME280;65299;46.084;18.762;2023-06-22T07:35:05;100850.88;;;29.13;54.62
76460;BME280;65299;46.084;18.762;2023-06-22T07:38:06;100851.06;;;29.27;54.35
76460;BME280;65299;46.084;18.762;2023-06-22T07:41:07;100853.53;;;29.10;55.81
76460;BME280;65299;46.084;18.762;2023-06-22T07:44:07;100855.13;;;29.11;54.73
76460;BME280;65299;46.084;18.762;2023-06-22T07:47:08;100852.59;;;29.25;55.12
76460;BME280;65299;46.084;18.762;2023-06-22T07:50:09;100849.72;;;29.51;53.90
76460;BME280;65299;46.084;18.762;2023-06-22T07:53:09;100859.00;;;29.39;53.96
76460;BME280;65299;46.084;18.762;2023-06-22T07:56:10;100859.91;;;29.54;54.10
76460;BME280;65299;46.084;18.762;2023-06-22T07:59:10;100853.63;;;29.94;53.63
76460;BME280;65299;46.084;18.762;2023-06-22T08:02:11;100856.03;;;29.99;53.32
76460;BME280;65299;46.084;18.762;2023-06-22T08:05:14;100855.53;;;29.83;53.34
76460;BME280;65299;46.084;18.762;2023-06-22T08:08:14;100851.31;;;29.99;53.12
76460;BME280;65299;46.084;18.762;2023-06-22T08:11:15;100853.59;;;30.41;52.84
76460;BME280;65299;46.084;18.762;2023-06-22T08:14:15;100849.88;;;30.77;52.23
76460;BME280;65299;46.084;18.762;2023-06-22T08:17:15;100856.94;;;30.78;52.03
76460;BME280;65299;46.084;18.762;2023-06-22T08:20:16;100851.66;;;30.45;52.11
76460;BME280;65299;46.084;18.762;2023-06-22T08:23:17;100843.59;;;30.77;51.62
76460;BME280;65299;46.084;18.762;2023-06-22T08:26:17;100853.56;;;31.13;51.90
76460;BME280;65299;46.084;18.762;2023-06-22T08:29:17;100850.38;;;31.04;50.86
76460;BME280;65299;46.084;18.762;2023-06-22T08:32:18;100853.13;;;31.07;51.76
76460;BME280;65299;46.084;18.762;2023-06-22T08:35:18;100857.88;;;31.14;50.74
76460;BME280;65299;46.084;18.762;2023-06-22T08:38:19;100855.47;;;31.05;50.83
76460;BME280;65299;46.084;18.762;2023-06-22T08:41:19;100851.53;;;30.99;51.23
76460;BME280;65299;46.084;18.762;2023-06-22T08:44:20;100849.66;;;31.32;50.57
76460;BME280;65299;46.084;18.762;2023-06-22T08:47:20;100845.03;;;31.57;50.88
76460;BME280;65299;46.084;18.762;2023-06-22T08:50:21;100842.28;;;31.57;50.35
76460;BME280;65299;46.084;18.762;2023-06-22T08:53:21;100843.47;;;31.42;50.80
76460;BME280;65299;46.084;18.762;2023-06-22T08:56:22;100844.97;;;31.25;50.75
76460;BME280;65299;46.084;18.762;2023-06-22T08:59:23;100839.94;;;31.59;49.68
76460;BME280;65299;46.084;18.762;2023-06-22T09:02:23;100835.28;;;31.95;49.61
76460;BME280;65299;46.084;18.762;2023-06-22T09:05:24;100829.75;;;32.05;49.18
76460;BME280;65299;46.084;18.762;2023-06-22T09:08:28;100835.63;;;32.14;48.39
76460;BME280;65299;46.084;18.762;2023-06-22T09:11:28;100827.41;;;31.65;49.74
76460;BME280;65299;46.084;18.762;2023-06-22T09:14:28;100823.09;;;31.64;50.92
76460;BME280;65299;46.084;18.762;2023-06-22T09:17:29;100827.38;;;32.21;49.85
76460;BME280;65299;46.084;18.762;2023-06-22T09:20:30;100831.31;;;31.85;49.15
76460;BME280;65299;46.084;18.762;2023-06-22T09:23:30;100826.63;;;32.03;49.33
76460;BME280;65299;46.084;18.762;2023-06-22T09:26:31;100823.06;;;32.20;48.65
76460;BME280;65299;46.084;18.762;2023-06-22T09:29:31;100821.88;;;32.25;48.02
76460;BME280;65299;46.084;18.762;2023-06-22T09:32:33;100815.59;;;32.24;47.84
76460;BME280;65299;46.084;18.762;2023-06-22T09:35:37;100815.53;;;32.59;47.57
76460;BME280;65299;46.084;18.762;2023-06-22T09:38:38;100814.56;;;32.91;46.96
76460;BME280;65299;46.084;18.762;2023-06-22T09:41:39;100811.34;;;33.10;45.32
76460;BME280;65299;46.084;18.762;2023-06-22T09:44:39;100810.66;;;32.92;45.56
76460;BME280;65299;46.084;18.762;2023-06-22T09:47:40;100805.28;;;33.36;45.85
76460;BME280;65299;46.084;18.762;2023-06-22T09:50:40;100799.56;;;33.13;45.59
76460;BME280;65299;46.084;18.762;2023-06-22T09:53:41;100808.34;;;33.52;45.57
76460;BME280;65299;46.084;18.762;2023-06-22T09:56:41;100796.16;;;33.53;45.15
76460;BME280;65299;46.084;18.762;2023-06-22T09:59:42;100797.91;;;33.77;44.66
76460;BME280;65299;46.084;18.762;2023-06-22T10:02:43;100789.59;;;33.81;44.25
76460;BME280;65299;46.084;18.762;2023-06-22T10:05:43;100787.56;;;34.25;44.35
76460;BME280;65299;46.084;18.762;2023-06-22T10:08:43;100791.94;;;33.82;43.39
76460;BME280;65299;46.084;18.762;2023-06-22T10:11:44;100791.53;;;34.24;43.81
76460;BME280;65299;46.084;18.762;2023-06-22T10:14:44;100790.03;;;33.76;41.97
76460;BME280;65299;46.084;18.762;2023-06-22T10:17:45;100789.69;;;33.74;41.68
76460;BME280;65299;46.084;18.762;2023-06-22T10:20:50;100783.63;;;33.89;42.27
76460;BME280;65299;46.084;18.762;2023-06-22T10:23:53;100788.50;;;34.46;39.63
76460;BME280;65299;46.084;18.762;2023-06-22T10:26:53;100789.91;;;34.27;40.89
76460;BME280;65299;46.084;18.762;2023-06-22T10:29:54;100787.53;;;34.29;40.42
76460;BME280;65299;46.084;18.762;2023-06-22T10:32:55;100799.19;;;33.62;42.26
76460;BME280;65299;46.084;18.762;2023-06-22T10:35:55;100793.38;;;33.97;42.59
76460;BME280;65299;46.084;18.762;2023-06-22T10:38:55;100788.59;;;34.05;41.47
76460;BME280;65299;46.084;18.762;2023-06-22T10:41:56;100787.00;;;34.07;42.17
76460;BME280;65299;46.084;18.762;2023-06-22T10:44:56;100782.28;;;33.64;39.32
76460;BME280;65299;46.084;18.762;2023-06-22T10:47:57;100783.34;;;33.77;40.98
76460;BME280;65299;46.084;18.762;2023-06-22T10:50:57;100780.72;;;33.63;42.26
76460;BME280;65299;46.084;18.762;2023-06-22T10:53:57;100789.31;;;33.68;42.22
76460;BME280;65299;46.084;18.762;2023-06-22T10:56:58;100786.69;;;33.95;43.17
76460;BME280;65299;46.084;18.762;2023-06-22T10:59:58;100775.41;;;33.82;42.22
76460;BME280;65299;46.084;18.762;2023-06-22T11:02:59;100782.97;;;33.75;41.98
76460;BME280;65299;46.084;18.762;2023-06-22T11:05:59;100774.66;;;33.78;41.83
76460;BME280;65299;46.084;18.762;2023-06-22T11:08:59;100777.91;;;33.66;42.17
76460;BME280;65299;46.084;18.762;2023-06-22T11:12:00;100767.97;;;33.79;42.63
76460;BME280;65299;46.084;18.762;2023-06-22T11:15:01;100783.28;;;34.24;41.85
76460;BME280;65299;46.084;18.762;2023-06-22T11:18:01;100774.44;;;34.06;41.48
76460;BME280;65299;46.084;18.762;2023-06-22T11:21:02;100767.91;;;34.23;41.21
76460;BME280;65299;46.084;18.762;2023-06-22T11:24:02;100769.78;;;34.67;39.78
76460;BME280;65299;46.084;18.762;2023-06-22T11:27:03;100762.41;;;34.87;40.48
76460;BME280;65299;46.084;18.762;2023-06-22T11:30:04;100759.78;;;34.77;39.68
76460;BME280;65299;46.084;18.762;2023-06-22T11:33:05;100767.19;;;34.83;40.77
76460;BME280;65299;46.084;18.762;2023-06-22T11:36:05;100766.59;;;34.69;39.29
76460;BME280;65299;46.084;18.762;2023-06-22T11:39:08;100767.28;;;34.12;39.75
76460;BME280;65299;46.084;18.762;2023-06-22T11:42:10;100761.94;;;33.91;40.85
76460;BME280;65299;46.084;18.762;2023-06-22T11:45:11;100768.75;;;34.20;40.25
76460;BME280;65299;46.084;18.762;2023-06-22T11:48:11;100760.38;;;34.28;40.22
76460;BME280;65299;46.084;18.762;2023-06-22T11:51:11;100762.19;;;34.75;37.86
76460;BME280;65299;46.084;18.762;2023-06-22T11:54:12;100758.19;;;34.49;39.34
76460;BME280;65299;46.084;18.762;2023-06-22T11:57:12;100761.06;;;34.39;38.73
76460;BME280;65299;46.084;18.762;2023-06-22T12:00:13;100751.25;;;34.34;38.98
76460;BME280;65299;46.084;18.762;2023-06-22T12:03:18;100750.66;;;34.53;38.21
76460;BME280;65299;46.084;18.762;2023-06-22T12:06:19;100753.19;;;34.37;38.40
76460;BME280;65299;46.084;18.762;2023-06-22T12:09:19;100746.78;;;34.44;37.87
76460;BME280;65299;46.084;18.762;2023-06-22T12:12:19;100746.97;;;34.63;36.96
76460;BME280;65299;46.084;18.762;2023-06-22T12:15:20;100735.13;;;34.33;36.55
76460;BME280;65299;46.084;18.762;2023-06-22T12:18:20;100743.06;;;34.61;36.87
76460;BME280;65299;46.084;18.762;2023-06-22T12:21:21;100740.97;;;34.38;36.27
76460;BME280;65299;46.084;18.762;2023-06-22T12:24:22;100737.34;;;34.14;37.57
76460;BME280;65299;46.084;18.762;2023-06-22T12:27:22;100727.19;;;34.38;36.94
76460;BME280;65299;46.084;18.762;2023-06-22T12:30:23;100734.88;;;34.54;36.15
76460;BME280;65299;46.084;18.762;2023-06-22T12:33:23;100731.56;;;34.92;36.25
76460;BME280;65299;46.084;18.762;2023-06-22T12:36:23;100722.34;;;35.06;36.49
76460;BME280;65299;46.084;18.762;2023-06-22T12:39:24;100716.41;;;35.31;36.98
76460;BME280;65299;46.084;18.762;2023-06-22T12:42:25;100723.72;;;34.91;36.11
76460;BME280;65299;46.084;18.762;2023-06-22T12:45:26;100721.25;;;35.00;36.51
76460;BME280;65299;46.084;18.762;2023-06-22T12:48:29;100713.94;;;35.13;35.00
76460;BME280;65299;46.084;18.762;2023-06-22T12:51:29;100715.72;;;35.00;35.51
76460;BME280;65299;46.084;18.762;2023-06-22T12:54:30;100710.34;;;35.16;34.78
76460;BME280;65299;46.084;18.762;2023-06-22T12:57:30;100714.81;;;35.07;34.20
76460;BME280;65299;46.084;18.762;2023-06-22T13:00:30;100705.56;;;34.67;34.40
76460;BME280;65299;46.084;18.762;2023-06-22T13:03:31;100703.75;;;34.23;34.65
76460;BME280;65299;46.084;18.762;2023-06-22T13:06:31;100700.81;;;34.94;34.11
76460;BME280;65299;46.084;18.762;2023-06-22T13:09:32;100691.31;;;35.22;34.34
76460;BME280;65299;46.084;18.762;2023-06-22T13:12:32;100686.94;;;35.01;37.96
76460;BME280;65299;46.084;18.762;2023-06-22T13:15:32;100677.31;;;34.86;38.98
76460;BME280;65299;46.084;18.762;2023-06-22T13:18:33;100674.16;;;35.11;38.22
76460;BME280;65299;46.084;18.762;2023-06-22T13:21:35;100672.75;;;35.45;40.08
76460;BME280;65299;46.084;18.762;2023-06-22T13:24:36;100671.41;;;35.57;39.68
76460;BME280;65299;46.084;18.762;2023-06-22T13:27:36;100666.31;;;35.75;37.13
76460;BME280;65299;46.084;18.762;2023-06-22T13:30:37;100662.81;;;35.51;35.71
76460;BME280;65299;46.084;18.762;2023-06-22T13:33:37;100672.09;;;35.38;38.03
76460;BME280;65299;46.084;18.762;2023-06-22T13:36:38;100667.41;;;35.58;35.44
76460;BME280;65299;46.084;18.762;2023-06-22T13:39:38;100665.75;;;35.83;34.65
76460;BME280;65299;46.084;18.762;2023-06-22T13:42:39;100664.97;;;35.40;35.14
76460;BME280;65299;46.084;18.762;2023-06-22T13:45:39;100662.63;;;35.39;34.46
76460;BME280;65299;46.084;18.762;2023-06-22T13:48:39;100655.72;;;35.50;34.80
76460;BME280;65299;46.084;18.762;2023-06-22T13:51:40;100658.59;;;35.43;34.71
76460;BME280;65299;46.084;18.762;2023-06-22T13:54:40;100661.59;;;35.29;35.88
76460;BME280;65299;46.084;18.762;2023-06-22T13:57:42;100654.53;;;35.28;35.75
76460;BME280;65299;46.084;18.762;2023-06-22T14:00:42;100649.50;;;35.46;35.82
76460;BME280;65299;46.084;18.762;2023-06-22T14:03:43;100652.63;;;35.48;35.86
76460;BME280;65299;46.084;18.762;2023-06-22T14:06:45;100641.59;;;35.02;36.58
76460;BME280;65299;46.084;18.762;2023-06-22T14:09:46;100642.16;;;35.36;36.18
76460;BME280;65299;46.084;18.762;2023-06-22T14:12:46;100635.41;;;35.60;36.08
76460;BME280;65299;46.084;18.762;2023-06-22T14:15:47;100635.28;;;35.67;35.62
76460;BME280;65299;46.084;18.762;2023-06-22T14:18:48;100633.34;;;35.84;36.44
76460;BME280;65299;46.084;18.762;2023-06-22T14:21:48;100634.00;;;36.11;36.09
76460;BME280;65299;46.084;18.762;2023-06-22T14:24:49;100637.91;;;35.94;36.17
76460;BME280;65299;46.084;18.762;2023-06-22T14:27:50;100632.47;;;36.46;36.73
76460;BME280;65299;46.084;18.762;2023-06-22T14:30:50;100634.38;;;37.87;33.94
76460;BME280;65299;46.084;18.762;2023-06-22T14:33:51;100623.91;;;38.57;30.55
76460;BME280;65299;46.084;18.762;2023-06-22T14:36:51;100621.09;;;39.63;29.60
76460;BME280;65299;46.084;18.762;2023-06-22T14:39:52;100622.53;;;40.20;29.61
76460;BME280;65299;46.084;18.762;2023-06-22T14:42:52;100621.75;;;40.50;28.29
76460;BME280;65299;46.084;18.762;2023-06-22T14:45:53;100623.25;;;40.42;28.83
76460;BME280;65299;46.084;18.762;2023-06-22T14:48:53;100624.34;;;40.45;28.81
76460;BME280;65299;46.084;18.762;2023-06-22T14:51:54;100618.06;;;40.23;28.49
76460;BME280;65299;46.084;18.762;2023-06-22T14:54:55;100612.19;;;40.61;29.13
76460;BME280;65299;46.084;18.762;2023-06-22T14:57:56;100610.28;;;41.70;27.62
76460;BME280;65299;46.084;18.762;2023-06-22T15:00:56;100612.28;;;40.39;28.40
76460;BME280;65299;46.084;18.762;2023-06-22T15:03:57;100599.81;;;40.22;29.01
76460;BME280;65299;46.084;18.762;2023-06-22T15:06:57;100602.38;;;40.96;28.19
76460;BME280;65299;46.084;18.762;2023-06-22T15:09:57;100605.94;;;41.51;27.49
76460;BME280;65299;46.084;18.762;2023-06-22T15:12:58;100595.72;;;41.20;27.64
76460;BME280;65299;46.084;18.762;2023-06-22T15:15:58;100590.31;;;40.90;28.32
76460;BME280;65299;46.084;18.762;2023-06-22T15:18:58;100593.09;;;41.17;27.91
76460;BME280;65299;46.084;18.762;2023-06-22T15:21:59;100587.22;;;41.06;27.92
76460;BME280;65299;46.084;18.762;2023-06-22T15:24:59;100586.78;;;41.25;27.39
76460;BME280;65299;46.084;18.762;2023-06-22T15:28:00;100588.91;;;41.49;28.47
76460;BME280;65299;46.084;18.762;2023-06-22T15:31:00;100579.00;;;41.20;28.16
76460;BME280;65299;46.084;18.762;2023-06-22T15:34:01;100589.09;;;41.09;27.56
76460;BME280;65299;46.084;18.762;2023-06-22T15:37:03;100579.84;;;40.14;28.71
76460;BME280;65299;46.084;18.762;2023-06-22T15:40:04;100590.22;;;40.53;28.95
76460;BME280;65299;46.084;18.762;2023-06-22T15:43:05;100578.91;;;39.56;29.83